aviador You're here:

CYWA Decoded Metar

PETAWAWA in ON, CANADA
Report Time2018-05-26 15:00:00
UTC Time2018-05-26 15:44:41
Flight Rules mvfr MVFR
Wind030° at 02 kt
W.Decomp.*RWY 34: 0.9 kt HW 1.8 kt RCW
W.Rank030° ranks 35
Current wind is below 030° avg. (4.6)
Visibility9999 m
Phenomena:N/A
Clouds:Overcast 019 Hf
Overcast 060 Hf
Expected CloudBase > 800 ft AGL from Temp-Dew spread
Ceiling1,900 ft
Temp19°C (ISA +5)
Dew Point17°C (88% RH)
QNH1009 hPa
Density Alt1,391 ft
Elevation427 ft
Report Wrong Elevation
Raw Report
CYWA 261500Z AUTO 03002KT 9SM OVC019 OVC060 19/17 A2981 RMK
SLP098=

Extra information for CYWA:More info

Metar Taf Metar & Taf Last 4 Metars F.Rules Stats Wind Profile Meteogram Temp Stats Airport Information Weather charts Add Link Nearby VenuesMetar ALERT Operation Metar Decoded Social comments